Time;durP1;ratioP1;P1;durP2;ratioP2;P2;SDS_P1;SDS_P2;PMS_P1;PMS_P2;Temp;Humidity;BMP_temperature;BMP_pressure;BME280_temperature;BME280_humidity;BME280_pressure;Samples;Min_cycle;Max_cycle;Signal;HPM_P1;HPM_P2
2023/10/05 00:01:30;;;;;;;;;;;11.90;99.90;;;;;;5030059;28;20049;-76
2023/10/05 00:03:56;;;;;;;3.60;1.05;;;11.90;99.90;;;;;;5031070;28;19909;-76
2023/10/05 00:06:25;;;;;;;3.08;0.77;;;12.00;99.90;;;;;;5031102;28;20041;-76
2023/10/05 00:08:53;;;;;;;7.32;0.77;;;11.90;99.90;;;;;;5029529;28;20028;-76
2023/10/05 00:11:36;;;;;;;3.20;0.90;;;11.90;99.90;;;;;;5029376;28;20044;-76
2023/10/05 00:14:12;;;;;;;5.00;1.33;;;11.90;99.90;;;;;;5029399;28;20029;-75
2023/10/05 00:16:38;;;;;;;;;;;11.90;99.90;;;;;;5031006;28;20108;-76
2023/10/05 00:19:13;;;;;;;4.47;1.13;;;11.90;99.90;;;;;;5029095;28;19920;-76
2023/10/05 00:21:51;;;;;;;2.53;1.05;;;11.80;99.90;;;;;;5029495;28;20064;-77
2023/10/05 00:24:34;;;;;;;2.90;0.80;;;11.80;99.90;;;;;;5030118;28;20029;-77
2023/10/05 00:27:02;;;;;;;2.72;1.20;;;11.80;99.90;;;;;;5029241;28;20079;-79
2023/10/05 00:29:29;;;;;;;3.85;0.98;;;11.70;99.90;;;;;;5029340;28;20033;-78
2023/10/05 00:31:59;;;;;;;2.95;0.95;;;11.70;99.90;;;;;;5029261;28;20036;-77
2023/10/05 00:34:27;;;;;;;2.95;0.82;;;11.80;99.90;;;;;;5030727;28;20083;-77
2023/10/05 00:36:58;;;;;;;2.85;0.90;;;11.70;99.90;;;;;;5030472;28;20022;-76
2023/10/05 00:39:25;;;;;;;3.13;0.90;;;11.70;99.90;;;;;;5029098;28;20472;-76
2023/10/05 00:44:29;;;;;;;3.90;1.15;;;11.60;99.90;;;;;;5030391;28;20457;-76
2023/10/05 00:46:55;;;;;;;5.13;1.08;;;11.60;99.90;;;;;;5029233;28;20026;-76
2023/10/05 00:49:23;;;;;;;3.58;1.05;;;11.60;99.90;;;;;;5030173;28;20033;-76
2023/10/05 00:52:02;;;;;;;2.58;0.90;;;11.60;99.90;;;;;;5030103;28;20565;-77
2023/10/05 00:54:32;;;;;;;6.63;0.98;;;11.50;99.90;;;;;;5028803;28;20115;-77
2023/10/05 00:57:01;;;;;;;5.35;1.45;;;11.50;99.90;;;;;;5029953;28;20137;-77
2023/10/05 00:59:31;;;;;;;5.85;1.05;;;11.60;99.90;;;;;;5028485;28;20107;-75
2023/10/05 01:04:28;;;;;;;3.10;0.93;;;11.60;99.90;;;;;;5029903;28;20056;-77
2023/10/05 01:07:00;;;;;;;2.53;1.05;;;11.60;99.90;;;;;;5028745;28;20484;-75
2023/10/05 01:11:54;;;;;;;;;;;11.60;99.90;;;;;;5030232;28;20489;-76
2023/10/05 01:14:23;;;;;;;2.47;0.93;;;11.60;99.90;;;;;;5028321;28;19905;-76
2023/10/05 01:16:49;;;;;;;4.75;1.63;;;11.60;99.90;;;;;;5029415;28;20061;-76
2023/10/05 01:19:15;;;;;;;;;;;11.60;99.90;;;;;;5028804;28;20045;-75
2023/10/05 01:21:44;;;;;;;3.50;0.70;;;11.60;99.90;;;;;;5029538;28;19909;-76
2023/10/05 01:24:10;;;;;;;1.73;0.60;;;11.70;99.90;;;;;;5029507;28;20053;-76
2023/10/05 01:26:37;;;;;;;3.83;1.88;;;11.70;99.90;;;;;;5029611;28;20029;-75
2023/10/05 01:29:03;;;;;;;2.55;0.68;;;11.70;99.90;;;;;;5029628;28;20079;-75
2023/10/05 01:31:30;;;;;;;2.30;0.80;;;11.70;99.90;;;;;;5029493;28;20037;-75
2023/10/05 01:33:58;;;;;;;2.85;0.77;;;11.70;99.90;;;;;;5029477;28;20460;-75
2023/10/05 01:36:25;;;;;;;2.08;0.75;;;11.70;99.90;;;;;;5029217;28;20033;-74
2023/10/05 01:38:54;;;;;;;3.72;0.65;;;11.70;99.90;;;;;;5045426;28;20041;-76
2023/10/05 01:41:22;;;;;;;3.42;0.60;;;11.70;99.90;;;;;;5036843;28;20503;-76
2023/10/05 01:43:49;;;;;;;3.40;1.08;;;11.60;99.90;;;;;;5042978;28;20087;-76
2023/10/05 01:46:15;;;;;;;3.78;1.08;;;11.60;99.90;;;;;;5047650;28;20557;-75
2023/10/05 01:48:41;;;;;;;;;;;11.70;99.90;;;;;;5049372;28;20112;-76
2023/10/05 01:51:10;;;;;;;4.30;1.30;;;11.60;99.90;;;;;;5048696;28;19916;-75
2023/10/05 01:53:36;;;;;;;2.80;1.15;;;11.60;99.90;;;;;;5048953;28;20033;-76
2023/10/05 01:56:03;;;;;;;6.75;1.73;;;11.70;99.90;;;;;;5047425;28;20583;-77
2023/10/05 01:58:34;;;;;;;4.05;1.30;;;11.60;99.90;;;;;;5035682;28;20444;-78
2023/10/05 02:01:00;;;;;;;3.47;1.08;;;11.70;99.90;;;;;;5036732;28;20112;-75
2023/10/05 02:03:26;;;;;;;2.60;0.80;;;11.60;99.90;;;;;;5027631;28;20576;-74
2023/10/05 02:05:58;;;;;;;;;;;11.60;99.90;;;;;;5031858;28;20048;-75
2023/10/05 02:08:24;;;;;;;3.50;0.98;;;11.70;99.90;;;;;;5027461;28;20012;-73
2023/10/05 02:10:50;;;;;;;2.50;0.90;;;11.60;99.90;;;;;;5028658;28;20067;-74
2023/10/05 02:13:17;;;;;;;;;;;11.60;99.90;;;;;;5029162;28;20053;-75
2023/10/05 02:15:42;;;;;;;3.38;0.88;;;11.60;99.90;;;;;;5027428;28;19905;-74
2023/10/05 02:18:27;;;;;;;3.00;1.05;;;11.60;99.90;;;;;;5027149;28;20052;-75
2023/10/05 02:21:09;;;;;;;3.65;0.90;;;11.50;99.90;;;;;;5026812;28;20041;-75
2023/10/05 02:23:41;;;;;;;3.33;1.33;;;11.60;99.90;;;;;;5026874;28;20090;-75
2023/10/05 02:26:23;;;;;;;3.25;1.08;;;11.50;99.90;;;;;;5025927;28;20025;-75
2023/10/05 02:28:48;;;;;;;3.35;1.02;;;11.60;99.90;;;;;;5026238;28;20029;-74
2023/10/05 02:31:14;;;;;;;;;;;11.60;99.90;;;;;;5025871;28;20033;-75
2023/10/05 02:33:43;;;;;;;4.10;0.90;;;11.60;99.90;;;;;;5025872;28;19905;-75
2023/10/05 02:36:14;;;;;;;9.00;0.80;;;11.50;99.90;;;;;;5025791;28;20036;-76
2023/10/05 02:38:48;;;;;;;4.82;0.95;;;11.50;99.90;;;;;;5025360;28;20033;-75
2023/10/05 02:41:24;;;;;;;4.38;0.63;;;11.60;99.90;;;;;;5024377;28;20033;-76
2023/10/05 02:43:52;;;;;;;3.85;1.10;;;11.60;99.90;;;;;;5027061;28;20064;-75
2023/10/05 02:46:20;;;;;;;3.13;0.90;;;11.60;99.90;;;;;;5028928;28;20434;-74
2023/10/05 02:48:46;;;;;;;3.88;1.15;;;11.60;99.90;;;;;;5032124;28;20112;-75
2023/10/05 02:51:14;;;;;;;4.25;1.20;;;11.50;99.90;;;;;;5031877;28;20083;-75
2023/10/05 02:53:57;;;;;;;3.35;0.95;;;11.50;99.90;;;;;;5030627;28;20068;-75
2023/10/05 02:56:29;;;;;;;3.13;0.90;;;11.40;99.90;;;;;;5030766;28;20027;-76
2023/10/05 02:59:00;;;;;;;2.88;1.02;;;11.40;99.90;;;;;;5030779;28;20069;-75
2023/10/05 03:01:26;;;;;;;4.43;1.23;;;11.40;99.90;;;;;;5030643;28;20021;-74
2023/10/05 03:03:52;;;;;;;2.65;0.75;;;11.40;99.90;;;;;;5029208;28;20030;-75
2023/10/05 03:06:18;;;;;;;;;;;11.40;99.90;;;;;;5031391;28;20565;-73
2023/10/05 03:08:49;;;;;;;3.40;1.10;;;11.40;99.90;;;;;;5030555;28;20313;-73
2023/10/05 03:11:18;;;;;;;2.65;0.90;;;11.30;99.90;;;;;;5032106;28;20118;-74
2023/10/05 03:13:44;;;;;;;4.10;1.00;;;11.40;99.90;;;;;;5030799;28;20032;-76
2023/10/05 03:16:10;;;;;;;4.40;1.00;;;11.40;99.90;;;;;;5030067;28;20117;-76
2023/10/05 03:18:42;;;;;;;;;;;11.40;99.90;;;;;;5032210;28;20160;-77
2023/10/05 03:21:12;;;;;;;4.55;1.00;;;11.30;99.90;;;;;;5031855;28;20007;-76
2023/10/05 03:23:41;;;;;;;5.68;0.50;;;11.40;99.90;;;;;;5030762;28;20033;-75
2023/10/05 03:26:09;;;;;;;3.33;1.02;;;11.40;99.90;;;;;;5030318;28;20036;-74
2023/10/05 03:28:35;;;;;;;2.60;1.00;;;11.40;99.90;;;;;;5031682;28;20581;-74
2023/10/05 03:31:06;;;;;;;6.65;0.98;;;11.30;99.90;;;;;;5030389;28;20033;-74
2023/10/05 03:33:36;;;;;;;3.35;1.10;;;11.30;99.90;;;;;;5031733;28;20498;-74
2023/10/05 03:36:06;;;;;;;3.33;1.25;;;11.30;99.90;;;;;;5031378;28;20401;-75
2023/10/05 03:38:34;;;;;;;3.67;0.90;;;11.30;99.90;;;;;;5031496;28;20029;-75
2023/10/05 03:41:03;;;;;;;2.85;1.08;;;11.30;99.90;;;;;;5030252;28;20457;-75
2023/10/05 03:43:31;;;;;;;2.05;0.80;;;11.30;99.90;;;;;;5030273;28;20123;-75
2023/10/05 03:45:57;;;;;;;2.70;0.73;;;11.30;99.90;;;;;;5030043;28;20028;-75
2023/10/05 03:48:23;;;;;;;5.22;1.20;;;11.30;99.90;;;;;;5031433;28;20124;-74
2023/10/05 03:50:48;;;;;;;;;;;11.30;99.90;;;;;;5030584;28;20055;-75
2023/10/05 03:53:16;;;;;;;2.38;0.70;;;11.30;99.90;;;;;;5029808;28;20281;-75
2023/10/05 03:55:41;;;;;;;2.63;0.77;;;11.30;99.90;;;;;;5031270;28;20091;-75
2023/10/05 03:58:07;;;;;;;;;;;11.30;99.90;;;;;;5029086;28;20497;-77
2023/10/05 04:00:36;;;;;;;2.58;0.90;;;11.30;99.90;;;;;;5031083;28;19909;-75
2023/10/05 04:03:06;;;;;;;3.00;0.80;;;11.20;99.90;;;;;;5029677;28;20510;-79
2023/10/05 04:05:32;;;;;;;2.63;1.08;;;11.20;99.90;;;;;;5029989;28;20017;-74
2023/10/05 04:08:10;;;;;;;5.78;2.38;;;11.20;99.90;;;;;;5030963;28;20116;-75
2023/10/05 04:10:46;;;;;;;4.28;1.70;;;11.20;99.90;;;;;;5031149;28;20517;-74
2023/10/05 04:13:14;;;;;;;4.03;1.60;;;11.30;99.90;;;;;;5030762;28;20100;-74
2023/10/05 04:15:40;;;;;;;4.45;1.17;;;11.20;99.90;;;;;;5030807;28;20088;-75
2023/10/05 04:18:11;;;;;;;;;;;11.20;99.90;;;;;;5030919;28;20049;-75
2023/10/05 04:20:37;;;;;;;3.67;1.48;;;11.30;99.90;;;;;;5030566;28;19913;-75
2023/10/05 04:23:03;;;;;;;4.43;1.58;;;11.30;99.90;;;;;;5030693;28;20395;-76
2023/10/05 04:25:28;;;;;;;;;;;11.30;99.90;;;;;;5029629;28;20036;-75
2023/10/05 04:27:55;;;;;;;8.63;2.53;;;11.20;99.90;;;;;;5030531;28;19905;-75
2023/10/05 04:30:21;;;;;;;6.53;1.52;;;11.20;99.90;;;;;;5029683;28;20034;-75
2023/10/05 04:32:50;;;;;;;5.05;1.52;;;11.20;99.90;;;;;;5030632;28;20112;-75
2023/10/05 04:35:28;;;;;;;5.28;1.42;;;11.10;99.90;;;;;;5029383;28;20376;-75
2023/10/05 04:37:54;;;;;;;5.35;1.67;;;11.10;99.90;;;;;;5030753;28;20029;-74
2023/10/05 04:40:24;;;;;;;7.15;1.25;;;11.10;99.90;;;;;;5030355;28;20513;-74
2023/10/05 04:42:51;;;;;;;3.17;1.10;;;11.00;99.90;;;;;;5030389;28;20498;-75
2023/10/05 04:45:17;;;;;;;2.88;0.90;;;11.00;99.90;;;;;;5030347;28;20037;-75
2023/10/05 04:47:42;;;;;;;;;;;11.00;99.90;;;;;;5030740;28;20018;-76
2023/10/05 04:50:13;;;;;;;4.35;1.63;;;10.90;99.90;;;;;;5030097;28;19947;-75
2023/10/05 04:52:39;;;;;;;6.60;1.95;;;10.90;99.90;;;;;;5030145;28;20033;-76
2023/10/05 04:58:14;;;;;;;6.28;1.80;;;10.80;99.90;;;;;;5030275;28;20121;-75
2023/10/05 05:03:56;;;;;;;8.25;2.10;;;11.00;99.90;;;;;;5029889;28;20029;-75
2023/10/05 05:06:12;;;;;;;6.78;1.08;;;11.10;99.90;;;;;;5029258;28;20057;-76
2023/10/05 05:08:41;;;;;;;6.72;1.20;;;11.10;99.90;;;;;;5028506;28;20036;-76
2023/10/05 05:11:11;;;;;;;4.15;1.17;;;11.10;99.90;;;;;;5029788;28;20025;-75
2023/10/05 05:13:40;;;;;;;5.88;1.65;;;11.10;99.90;;;;;;5030065;28;20025;-76
2023/10/05 05:16:07;;;;;;;2.10;0.77;;;11.20;99.90;;;;;;5029665;28;20033;-75
2023/10/05 05:18:37;;;;;;;6.63;1.42;;;11.20;99.90;;;;;;5029805;28;20029;-75
2023/10/05 05:21:05;;;;;;;5.20;1.48;;;11.30;99.90;;;;;;5029677;28;20037;-75
2023/10/05 05:23:31;;;;;;;6.53;1.25;;;11.30;99.90;;;;;;5029902;28;20025;-74
2023/10/05 05:25:57;;;;;;;;;;;11.30;99.90;;;;;;5029777;28;20430;-74
2023/10/05 05:28:22;;;;;;;4.13;1.15;;;11.30;99.90;;;;;;5029438;28;19909;-75
2023/10/05 05:30:48;;;;;;;;;;;11.30;99.90;;;;;;5029889;28;20032;-73
2023/10/05 05:33:13;;;;;;;3.72;1.35;;;11.40;99.90;;;;;;5029279;28;19956;-75
2023/10/05 05:35:39;;;;;;;;;;;11.40;99.90;;;;;;5029733;28;20141;-74
2023/10/05 05:38:09;;;;;;;6.63;1.83;;;11.50;99.90;;;;;;5029088;28;19909;-74
2023/10/05 05:40:36;;;;;;;7.20;1.73;;;11.50;99.90;;;;;;5029337;28;20508;-76
2023/10/05 05:43:07;;;;;;;8.32;1.83;;;11.60;99.90;;;;;;5029085;28;20053;-76
2023/10/05 05:45:34;;;;;;;3.17;1.25;;;11.60;99.90;;;;;;5027804;28;20414;-75
2023/10/05 05:48:00;;;;;;;4.95;1.63;;;11.60;99.90;;;;;;5029098;28;20029;-75
2023/10/05 05:50:29;;;;;;;;;;;11.60;99.90;;;;;;5029705;28;20036;-75
2023/10/05 05:52:56;;;;;;;3.17;1.08;;;11.60;99.90;;;;;;5029015;28;19909;-76
2023/10/05 05:55:22;;;;;;;4.13;1.85;;;11.50;99.90;;;;;;5028886;28;20025;-75
2023/10/05 05:57:50;;;;;;;9.52;2.10;;;11.60;99.90;;;;;;5028743;28;20044;-75
2023/10/05 06:00:18;;;;;;;5.97;2.00;;;11.60;99.90;;;;;;5028840;28;20495;-76
2023/10/05 06:02:44;;;;;;;7.20;2.25;;;11.60;99.90;;;;;;5028793;28;20076;-75
2023/10/05 06:05:11;;;;;;;6.32;1.98;;;11.60;99.90;;;;;;5029245;28;20437;-76
2023/10/05 06:07:43;;;;;;;6.22;1.77;;;11.60;99.90;;;;;;5028919;28;20130;-77
2023/10/05 06:10:12;;;;;;;5.65;1.95;;;11.70;99.90;;;;;;5027552;28;20109;-76
2023/10/05 06:12:39;;;;;;;4.78;1.70;;;11.80;99.90;;;;;;5028867;28;20120;-73
2023/10/05 06:15:06;;;;;;;3.05;1.35;;;12.00;99.90;;;;;;5028779;28;20109;-75
2023/10/05 06:17:33;;;;;;;5.38;1.38;;;12.10;99.90;;;;;;5028239;28;20542;-76
2023/10/05 06:19:59;;;;;;;4.72;1.63;;;12.20;99.90;;;;;;5027065;28;20780;-72
2023/10/05 06:22:25;;;;;;;;;;;12.40;99.90;;;;;;5027174;28;20040;-73
2023/10/05 06:24:51;;;;;;;4.50;1.50;;;12.50;99.90;;;;;;5028403;28;19909;-72
2023/10/05 06:27:16;;;;;;;;;;;12.80;99.90;;;;;;5028806;28;20060;-72
2023/10/05 06:29:42;;;;;;;3.85;1.17;;;13.00;99.90;;;;;;5027124;28;20363;-74
2023/10/05 06:32:08;;;;;;;;;;;13.40;99.90;;;;;;5028871;28;20037;-73
2023/10/05 06:34:37;;;;;;;6.15;1.30;;;13.80;99.90;;;;;;5026919;28;19909;-74
2023/10/05 06:37:03;;;;;;;5.75;1.30;;;14.30;99.90;;;;;;5028376;28;20029;-73
2023/10/05 06:39:32;;;;;;;5.68;1.45;;;14.90;99.90;;;;;;5026928;28;20030;-74
2023/10/05 06:41:58;;;;;;;6.72;1.40;;;15.40;99.90;;;;;;5028298;28;20029;-74
2023/10/05 06:44:24;;;;;;;5.65;1.13;;;16.00;99.90;;;;;;5028258;28;20425;-73
2023/10/05 06:46:50;;;;;;;5.68;1.10;;;16.50;99.90;;;;;;5028192;28;20033;-75
2023/10/05 06:49:16;;;;;;;5.50;1.17;;;16.80;99.90;;;;;;5028253;28;20142;-75
2023/10/05 06:51:45;;;;;;;2.95;1.05;;;17.20;97.80;;;;;;5028399;28;20442;-75
2023/10/05 06:54:11;;;;;;;3.22;1.33;;;17.50;96.70;;;;;;5028256;28;20037;-76
2023/10/05 06:56:37;;;;;;;6.22;1.75;;;17.80;95.00;;;;;;5028069;28;20026;-75
2023/10/05 06:59:07;;;;;;;9.15;1.50;;;17.90;94.00;;;;;;5027953;28;20041;-77
2023/10/05 07:01:34;;;;;;;3.53;1.10;;;18.10;93.50;;;;;;5028310;28;20032;-76
2023/10/05 07:04:01;;;;;;;6.25;1.10;;;18.10;93.10;;;;;;5028060;28;20022;-75
2023/10/05 07:06:29;;;;;;;5.15;1.13;;;17.80;92.40;;;;;;5026665;28;20699;-75
2023/10/05 07:08:59;;;;;;;3.63;1.15;;;17.80;92.20;;;;;;5028159;28;20029;-75
2023/10/05 07:11:25;;;;;;;3.45;1.30;;;17.70;91.40;;;;;;5028010;28;20018;-76
2023/10/05 07:13:51;;;;;;;4.68;1.38;;;17.50;90.80;;;;;;5028117;28;20068;-76
2023/10/05 07:16:17;;;;;;;3.85;1.38;;;17.60;90.70;;;;;;5026509;28;20068;-75
2023/10/05 07:18:43;;;;;;;4.88;1.55;;;17.70;91.10;;;;;;5026459;28;20039;-76
2023/10/05 07:21:09;;;;;;;4.85;1.17;;;17.80;90.50;;;;;;5027935;28;20026;-75
2023/10/05 07:23:38;;;;;;;4.05;0.85;;;17.90;89.50;;;;;;5028029;28;20084;-74
2023/10/05 07:26:06;;;;;;;6.88;1.98;;;18.00;88.50;;;;;;5027761;28;20027;-75
2023/10/05 07:28:33;;;;;;;4.30;1.52;;;18.10;85.70;;;;;;5043231;28;20029;-75
2023/10/05 07:30:59;;;;;;;5.88;1.63;;;18.00;85.50;;;;;;5026620;28;20053;-75
2023/10/05 07:33:26;;;;;;;8.05;1.88;;;18.00;84.10;;;;;;5030506;28;20041;-75
2023/10/05 07:35:53;;;;;;;5.07;1.48;;;18.10;83.50;;;;;;5031496;28;20398;-76
2023/10/05 07:38:20;;;;;;;4.55;1.75;;;18.20;82.30;;;;;;5031572;28;20029;-73
2023/10/05 07:40:47;;;;;;;5.97;1.92;;;18.30;81.10;;;;;;5031504;28;20021;-74
2023/10/05 07:43:13;;;;;;;6.50;2.45;;;18.40;80.70;;;;;;5031750;28;20536;-73
2023/10/05 07:45:39;;;;;;;4.78;1.90;;;18.50;79.60;;;;;;5031177;28;20510;-73
2023/10/05 07:48:06;;;;;;;10.35;2.42;;;18.50;77.40;;;;;;5031121;28;20040;-74
2023/10/05 07:50:32;;;;;;;4.47;1.60;;;18.50;76.00;;;;;;5031372;28;20048;-74
2023/10/05 07:52:58;;;;;;;5.55;1.98;;;18.50;75.50;;;;;;5031330;28;20053;-73
2023/10/05 07:55:24;;;;;;;4.90;1.65;;;18.60;75.40;;;;;;5031205;28;20063;-73
2023/10/05 07:57:51;;;;;;;4.65;2.00;;;18.70;75.10;;;;;;5031056;28;20037;-74
2023/10/05 08:00:20;;;;;;;5.90;2.35;;;18.90;74.30;;;;;;5031044;28;20097;-75
2023/10/05 08:02:46;;;;;;;5.43;2.05;;;19.00;73.10;;;;;;5031044;28;20022;-73
2023/10/05 08:05:12;;;;;;;5.93;2.33;;;19.20;72.00;;;;;;5030797;28;20040;-74
2023/10/05 08:07:38;;;;;;;6.47;2.00;;;19.40;71.20;;;;;;5030891;28;20504;-73
2023/10/05 08:10:13;;;;;;;5.88;2.20;;;19.50;69.90;;;;;;5030672;28;20574;-73
2023/10/05 08:12:39;;;;;;;6.25;2.10;;;19.70;69.40;;;;;;5031036;28;20034;-73
2023/10/05 08:15:05;;;;;;;6.45;2.20;;;19.80;68.80;;;;;;5029640;28;20034;-73
2023/10/05 08:17:33;;;;;;;4.72;1.50;;;20.00;67.50;;;;;;5030546;28;20119;-73
2023/10/05 08:19:59;;;;;;;11.60;1.92;;;20.50;66.60;;;;;;5030528;28;20515;-73
2023/10/05 08:22:24;;;;;;;4.95;2.10;;;21.20;64.50;;;;;;5030716;28;20026;-73
2023/10/05 08:24:52;;;;;;;5.93;2.60;;;22.00;62.10;;;;;;5030668;28;20030;-74
2023/10/05 08:27:19;;;;;;;7.75;2.70;;;22.90;59.20;;;;;;5030748;28;20025;-75
2023/10/05 08:29:45;;;;;;;6.88;2.47;;;23.60;57.30;;;;;;5030645;28;20064;-76
2023/10/05 08:32:14;;;;;;;4.93;2.75;;;24.20;54.80;;;;;;5030385;28;20026;-75
2023/10/05 08:34:41;;;;;;;3.85;1.90;;;24.80;52.30;;;;;;5030539;28;20029;-76
2023/10/05 08:37:19;;;;;;;4.00;1.98;;;25.30;50.90;;;;;;5028986;28;20407;-74
2023/10/05 08:39:46;;;;;;;5.68;2.28;;;25.70;47.20;;;;;;5028918;28;20049;-76
2023/10/05 08:42:14;;;;;;;5.32;2.05;;;25.90;47.30;;;;;;5030343;28;20105;-75
2023/10/05 08:44:43;;;;;;;5.35;2.35;;;26.40;46.10;;;;;;5029601;28;20057;-76
2023/10/05 08:47:12;;;;;;;6.22;1.98;;;26.80;44.20;;;;;;5030189;28;20033;-75
2023/10/05 08:49:39;;;;;;;4.25;2.30;;;27.00;42.90;;;;;;5030266;28;20418;-75
2023/10/05 08:52:14;;;;;;;6.75;2.17;;;27.30;42.90;;;;;;5028765;28;20486;-73
2023/10/05 08:54:41;;;;;;;5.43;2.05;;;27.60;42.70;;;;;;5029987;28;20473;-73
2023/10/05 08:57:10;;;;;;;9.25;1.92;;;28.00;41.20;;;;;;5029827;28;20056;-73
2023/10/05 08:59:37;;;;;;;17.88;2.00;;;28.20;39.90;;;;;;5029973;28;20037;-73
2023/10/05 09:02:02;;;;;;;5.75;2.20;;;28.40;39.60;;;;;;5029891;28;20032;-74
2023/10/05 09:04:47;;;;;;;3.92;1.75;;;28.60;38.90;;;;;;5030040;28;20033;-74
2023/10/05 09:07:29;;;;;;;5.18;2.25;;;28.90;39.20;;;;;;5029867;28;20026;-74
2023/10/05 09:09:55;;;;;;;2.53;1.50;;;29.10;38.30;;;;;;5029804;28;20025;-74
2023/10/05 09:12:46;;;;;;;4.13;2.15;;;29.30;37.70;;;;;;5029889;28;20025;-74
2023/10/05 09:15:28;;;;;;;4.63;2.17;;;29.50;37.60;;;;;;5029628;28;20132;-76
2023/10/05 09:20:33;;;;;;;5.38;2.05;;;29.80;35.80;;;;;;5029564;28;20061;-75
2023/10/05 09:23:13;;;;;;;4.20;2.03;;;29.60;36.10;;;;;;5029626;28;20037;-77
2023/10/05 09:25:48;;;;;;;4.00;2.15;;;29.70;35.80;;;;;;5029682;28;20106;-75
2023/10/05 09:28:51;;;;;;;5.80;2.70;;;29.70;35.20;;;;;;5029534;28;20025;-77
2023/10/05 09:31:19;;;;;;;4.75;2.33;;;29.80;34.80;;;;;;5029122;28;20113;-73
2023/10/05 09:33:53;;;;;;;4.80;1.67;;;29.60;34.70;;;;;;5029392;28;20026;-74
2023/10/05 09:36:22;;;;;;;6.65;2.00;;;29.70;35.10;;;;;;5029272;28;20130;-73
2023/10/05 09:38:51;;;;;;;4.88;2.22;;;29.70;35.30;;;;;;5029220;28;20044;-73
2023/10/05 09:41:17;;;;;;;4.40;2.33;;;29.50;34.70;;;;;;5029187;28;20553;-73
2023/10/05 09:43:44;;;;;;;4.00;1.50;;;29.60;34.60;;;;;;5028169;28;20120;-73
2023/10/05 09:46:11;;;;;;;4.47;1.85;;;29.90;34.50;;;;;;5029135;28;20021;-74
2023/10/05 09:48:38;;;;;;;7.13;2.38;;;30.00;34.60;;;;;;5043984;28;20025;-74
2023/10/05 09:51:08;;;;;;;5.70;2.47;;;30.20;34.60;;;;;;5029136;28;20044;-74
2023/10/05 09:53:44;;;;;;;5.72;2.33;;;30.30;34.20;;;;;;5029035;28;20025;-73
2023/10/05 09:56:14;;;;;;;3.33;1.60;;;30.20;33.80;;;;;;5027938;28;20034;-73
2023/10/05 09:58:41;;;;;;;4.60;1.83;;;30.20;33.50;;;;;;5028782;28;20037;-74
2023/10/05 10:01:20;;;;;;;4.38;2.20;;;30.00;33.30;;;;;;5027671;28;20864;-72
2023/10/05 10:03:46;;;;;;;4.70;2.42;;;29.20;33.40;;;;;;5028883;28;20540;-74
2023/10/05 10:06:17;;;;;;;6.32;2.45;;;28.10;34.90;;;;;;5028849;28;20031;-74
2023/10/05 10:08:51;;;;;;;5.35;2.58;;;27.30;36.90;;;;;;5028909;28;20033;-72
2023/10/05 10:11:18;;;;;;;4.20;1.90;;;26.40;38.00;;;;;;5029407;28;20104;-73
2023/10/05 10:14:18;;;;;;;9.63;2.22;;;25.60;39.00;;;;;;5028628;28;20202;-75
2023/10/05 10:16:47;;;;;;;7.53;2.72;;;25.00;39.70;;;;;;5028352;28;20037;-76
2023/10/05 10:19:19;;;;;;;4.03;2.03;;;24.50;40.70;;;;;;5028358;28;20033;-75
2023/10/05 10:21:48;;;;;;;5.32;2.75;;;24.00;41.30;;;;;;5028514;28;20258;-76
2023/10/05 10:24:17;;;;;;;7.10;2.28;;;23.60;42.10;;;;;;5028517;28;20041;-75
2023/10/05 10:26:56;;;;;;;6.07;2.80;;;23.40;42.50;;;;;;5028431;28;20037;-76
2023/10/05 10:29:39;;;;;;;7.10;2.40;;;23.30;43.10;;;;;;5028434;28;20099;-75
2023/10/05 10:32:31;;;;;;;9.00;2.40;;;23.20;43.10;;;;;;5027079;28;20025;-76
2023/10/05 10:35:12;;;;;;;12.77;2.17;;;23.10;43.60;;;;;;5028320;28;20029;-75
2023/10/05 10:37:44;;;;;;;6.18;2.28;;;22.90;43.60;;;;;;5028424;28;20033;-75
2023/10/05 10:40:25;;;;;;;5.53;2.42;;;22.80;43.90;;;;;;5028269;28;20029;-75
2023/10/05 10:43:14;;;;;;;7.15;2.38;;;22.60;44.70;;;;;;5028465;28;20673;-75
2023/10/05 10:45:49;;;;;;;5.47;2.30;;;22.50;44.80;;;;;;5028366;28;20034;-75
2023/10/05 10:48:22;;;;;;;7.82;2.35;;;22.50;45.40;;;;;;5027190;28;20025;-76
2023/10/05 10:50:52;;;;;;;5.65;2.35;;;22.50;45.70;;;;;;5028763;28;20029;-74
2023/10/05 10:53:18;;;;;;;4.78;2.15;;;22.40;45.40;;;;;;5029506;28;20022;-75
2023/10/05 10:55:48;;;;;;;6.45;2.03;;;22.30;45.30;;;;;;5028121;28;20047;-74
2023/10/05 10:58:16;;;;;;;5.30;2.50;;;22.20;45.80;;;;;;5028239;28;20117;-73
2023/10/05 11:00:56;;;;;;;5.63;2.00;;;22.20;46.30;;;;;;5026797;28;20040;-74
2023/10/05 11:03:30;;;;;;;8.40;2.40;;;22.10;46.50;;;;;;5026822;28;20116;-73
2023/10/05 11:05:58;;;;;;;3.47;1.25;;;22.00;46.90;;;;;;5028230;28;20057;-73
2023/10/05 11:08:29;;;;;;;3.90;1.60;;;22.00;46.50;;;;;;5030887;28;20410;-73
2023/10/05 11:10:59;;;;;;;4.13;1.92;;;21.90;46.30;;;;;;5032171;28;20525;-73
2023/10/05 11:13:26;;;;;;;5.47;1.42;;;21.80;46.30;;;;;;5032101;28;20025;-73
2023/10/05 11:16:00;;;;;;;6.30;2.13;;;21.80;47.10;;;;;;5031762;28;20041;-73
2023/10/05 11:18:39;;;;;;;6.43;1.65;;;21.80;47.60;;;;;;5031849;28;20451;-74
2023/10/05 11:21:24;;;;;;;3.88;1.45;;;21.80;47.10;;;;;;5031929;28;20048;-72
2023/10/05 11:23:57;;;;;;;3.72;1.40;;;21.80;47.40;;;;;;5031870;28;20028;-73
2023/10/05 11:26:33;;;;;;;6.68;1.60;;;21.80;47.10;;;;;;5030404;28;20057;-74
2023/10/05 11:29:15;;;;;;;3.38;1.30;;;21.90;46.90;;;;;;5031847;28;20056;-74
2023/10/05 11:31:41;;;;;;;4.05;1.60;;;21.90;47.40;;;;;;5031821;28;20030;-73
2023/10/05 11:34:13;;;;;;;6.05;1.63;;;21.90;46.70;;;;;;5031687;28;20041;-74
2023/10/05 11:36:42;;;;;;;5.97;2.22;;;22.00;46.70;;;;;;5031534;28;20069;-73
2023/10/05 11:39:27;;;;;;;4.38;1.80;;;22.10;47.00;;;;;;5031557;28;20584;-74
2023/10/05 11:41:58;;;;;;;4.10;1.55;;;22.20;47.70;;;;;;5031561;28;20021;-74
2023/10/05 11:44:24;;;;;;;3.83;1.95;;;22.30;47.00;;;;;;5031571;28;20030;-74
2023/10/05 11:46:54;;;;;;;7.53;2.10;;;22.20;46.40;;;;;;5031298;28;20029;-76
2023/10/05 11:49:30;;;;;;;3.85;1.63;;;22.20;46.40;;;;;;5031321;28;20025;-75
2023/10/05 11:51:57;;;;;;;3.20;1.42;;;22.10;47.00;;;;;;5031211;28;20702;-75
2023/10/05 11:54:34;;;;;;;4.38;1.80;;;22.10;46.90;;;;;;5031072;28;20026;-76
2023/10/05 11:57:05;;;;;;;5.97;2.13;;;22.00;46.60;;;;;;5031179;28;20045;-74
2023/10/05 11:59:35;;;;;;;9.23;1.67;;;21.90;46.90;;;;;;5031106;28;20061;-74
2023/10/05 12:02:04;;;;;;;4.55;2.00;;;21.90;46.30;;;;;;5031132;28;20022;-75
2023/10/05 12:04:31;;;;;;;3.72;1.48;;;21.90;46.50;;;;;;5029755;28;20041;-75
2023/10/05 12:06:59;;;;;;;3.40;1.52;;;21.90;46.20;;;;;;5032113;28;20025;-75
2023/10/05 12:09:32;;;;;;;3.47;1.48;;;21.90;46.00;;;;;;5031027;28;20661;-75
2023/10/05 12:12:10;;;;;;;4.70;2.13;;;22.00;45.30;;;;;;5030988;28;20112;-75
2023/10/05 12:14:36;;;;;;;7.78;1.83;;;22.10;45.70;;;;;;5030838;28;20084;-75
2023/10/05 12:17:02;;;;;;;5.88;2.20;;;22.20;45.70;;;;;;5029447;28;20065;-75
2023/10/05 12:19:33;;;;;;;4.85;2.05;;;22.30;45.10;;;;;;5030067;28;20033;-74
2023/10/05 12:22:01;;;;;;;4.82;2.00;;;22.40;44.40;;;;;;5029484;28;20030;-75
2023/10/05 12:24:27;;;;;;;4.75;1.70;;;22.50;45.10;;;;;;5030709;28;20616;-75
2023/10/05 12:26:55;;;;;;;5.75;1.95;;;22.60;45.10;;;;;;5030685;28;20123;-75
2023/10/05 12:29:21;;;;;;;5.00;1.80;;;22.50;45.00;;;;;;5030616;28;20037;-75
2023/10/05 12:31:49;;;;;;;3.92;1.38;;;22.50;45.10;;;;;;5030672;28;20013;-74
2023/10/05 12:34:15;;;;;;;2.20;1.10;;;22.50;44.80;;;;;;5030577;28;20099;-75
2023/10/05 12:36:49;;;;;;;7.53;1.70;;;22.60;44.80;;;;;;5030438;28;20018;-75
2023/10/05 12:39:19;;;;;;;5.57;1.65;;;22.60;45.70;;;;;;5030433;28;20135;-75
2023/10/05 12:41:46;;;;;;;4.43;1.50;;;22.60;45.80;;;;;;5030372;28;20026;-74
2023/10/05 12:44:15;;;;;;;2.78;1.30;;;22.50;45.50;;;;;;5030383;28;20494;-76
2023/10/05 12:46:45;;;;;;;2.97;1.42;;;22.50;45.10;;;;;;5028775;28;20053;-75
2023/10/05 12:49:15;;;;;;;4.40;1.67;;;22.50;45.40;;;;;;5030252;28;20060;-75
2023/10/05 12:51:44;;;;;;;3.70;1.73;;;22.50;45.10;;;;;;5030601;28;20122;-74
2023/10/05 12:54:18;;;;;;;5.78;1.98;;;22.40;45.00;;;;;;5030145;28;20025;-75
2023/10/05 12:56:44;;;;;;;5.13;1.52;;;22.40;45.90;;;;;;5029994;28;20039;-76
2023/10/05 12:59:10;;;;;;;4.90;1.65;;;22.30;46.00;;;;;;5030028;28;20046;-75
2023/10/05 13:01:36;;;;;;;3.70;1.60;;;22.40;46.00;;;;;;5030168;28;20028;-75
2023/10/05 13:04:05;;;;;;;4.78;1.38;;;22.30;46.50;;;;;;5028590;28;20029;-75
2023/10/05 13:06:32;;;;;;;3.85;1.50;;;22.40;47.10;;;;;;5029881;28;20032;-75
2023/10/05 13:09:03;;;;;;;3.83;2.03;;;22.30;46.60;;;;;;5029945;28;20025;-75
2023/10/05 13:11:29;;;;;;;5.45;1.27;;;22.30;46.10;;;;;;5029933;28;20464;-75
2023/10/05 13:13:55;;;;;;;7.07;2.47;;;22.30;46.20;;;;;;5029833;28;20037;-75
2023/10/05 13:16:21;;;;;;;3.33;1.15;;;22.30;46.50;;;;;;5028111;28;20053;-74
2023/10/05 13:18:49;;;;;;;3.72;1.55;;;22.30;46.30;;;;;;5029610;28;20084;-74
2023/10/05 13:21:16;;;;;;;4.15;1.48;;;22.20;46.20;;;;;;5029996;28;20025;-74